Airfield :
LOGIN :

Register | Disclaimer

   EN    FR    IT 

 










Legend :    VFR   Marginal VFR   IFR   Intensive IFR   Very Intensive IFR
Visi :
Ceiling :
>= 8 km
>= 3000ft
5 to 8 km
1000 to 3000 ft
1500m to 5 km
500 to 1000 ft
800 to 1500m
200 to 500 ft
< 800m
< 200 ft
Symbols :   Thunderstorms  Fog  Heavy snow  Heavy precipitations  Wind > 20 kt
SIGMETs :     Misc.  Thunderstorms  Icing  Turbulence  Mountain Waves  Volcanic Ashes







- Airport Elevation : 466 ft


LHPA - Pápa

CURRENT METAR :
  • 151515Z 11006KT 080V140 9999 BKN027 BKN083 05/03 Q1001 NOSIG RMK BLU

EXPIRED METARs :
  • 151445Z 05004KT 9999 BKN027 BKN083 04/03 Q1001 RERA NOSIG RMK BLU
  • 151415Z 10002KT 9999 BKN020 BKN083 04/03 Q1001 RERA NOSIG RMK WHT
  • 151412Z 10002KT 9999 BKN020 BKN083 04/03 Q1001 RERA RMK WHT
  • 151345Z 11006KT 9999 -RA BKN017 BKN083 05/02 Q1001 NOSIG RMK WHT
  • 151315Z 12006KT 9999 -RA BKN017 BKN083 04/02 Q1001 NOSIG RMK WHT
  • 151245Z 05004KT 9999 -RA BKN017 BKN083 05/02 Q1001 NOSIG RMK WHT

TAF TAF LHPA
Valid from the 15 at 12:00 until the 16 at 12:00 UTC


151115Z 1512/1612 VRB03KT CAVOK
TEMPO 1512/1518 06006KT 5000 RA SHRA SCT010 BKN025TCU
TEMPO 1518/1523 3000 BR BKN015
TEMPO 1523/1606 36008KT 3000 RA RASN BR BKN010 OVC030
BECMG 1606/1609 32012KT
TEMPO 1609/1612 33012G26KT
No reported NOTAMs for that airfield.



MET'MAP, your aeronautical weather chart ! - Copyright ORBIFLY December 2007 - Disclaimer

ORBIFLY MET'MAP TEAM :

Programming & Development : Alexandra Zaïnal
Concept & Development : Baudouin d'Aumeries
Co-Development & Prog : Marc-Olivier Méhu
Technical & hardware support : Manuel Goepfert

Contact : metmap@orbifly.com




SOURCES & CREDITS :

   NOAA